Tupelo, MS

10:11 PM CST on December 09, 2016 (GMT -0600)
Tupelo Regional | | Change Station

Elev 361 ft 34.26 °N, 88.77 °W | Updated 18 minutes ago

Clear
Clear
26 °F
Feels Like 19 °F
N
6
Wind Variable Wind from NNW

Today
High -- | Low -- °F
--% Chance of Precip.
Yesterday
High -- | Low -- °F
Precip. -- in
Pressure 30.59 in
Visibility 10.0 miles
Clouds Clear
Windchill 19 °F
Dew Point 17 °F
Humidity 69%
Rainfall 0.00 in
Snow Depth Not available.
6:49 AM 4:45 PM
Waxing Gibbous, 80% visible
METAR KTUP 100353Z AUTO 33005KT 10SM CLR M03/M08 A3058 RMK AO2 SLP359 T10331083
Pressure 30.59 in
Visibility 10.0 miles
Clouds Clear
Windchill 19 °F
Dew Point 17 °F
Humidity 69%
Rainfall 0.00 in
Snow Depth Not available.
6:49 AM 4:45 PM
Waxing Gibbous, 80% visible
METAR KTUP 100353Z AUTO 33005KT 10SM CLR M03/M08 A3058 RMK AO2 SLP359 T10331083

10-Day Weather Forecast

Almanac

Astronomy

Dec. 09, 2016 Rise Set
Actual Time
Civil Twilight
Nautical Twilight
Astronomical Twilight
Moon
Length of Visible Light
Length of Day
Tomorrow will be .
, % of the Moon is Illuminated

Today's Extremes

State Highs State Lows

Community

WunderPhotos

Upload Photos

1,956,529 photos uploaded!

WunderBlog® & News

Nearby

Air Quality

  Air Quality AQ Index Pollutant
Not available.

Snow Depth

Station Depth Elevation

Earthquake Activity

City Distance Mag. Time & Date
Minimum magnitude displayed is 2.5.

Coastal Water Temperatures

Place Temperature

Stations

Nearby Weather Stations

Station Location Temp. Windchill Dew Point Humidity Wind Precip. Elev Updated Type
                   

Watches & Warnings

There are currently no watches in effect.